KLFK

Angelina County Airport

Lufkin, Texas, USA
METAR KLFK 160053Z AUTO 00000KT 10SM CLR 09/08 A3016 RMK AO2 SLP211 T00890078
Observed Flight Rules
Dec-16 @ 00:53 UTC (33 minutes ago) Visual Flight Rules
Visibility Clouds
10 miles
  • Clear skies
Temperatures Readings
Current 9°C / 48°F
Dewpoint 8°C / 46°F
Humidity 94%
Altimeter 30.16" Hg
Pressure 1021.1 hPa
Elevation 88
METAR KLFK 160053Z AUTO 00000KT 10SM CLR 09/08 A3016 RMK AO2 SLP211 T00890078
Observed Flight Rules
Dec-16 @ 00:53 UTC
(33 minutes ago)
VFR
Clouds
  • Clear skies
Temperature Dewpoint
9°C / 48°F 8°C / 46°F
Humidity Altimeter Pressure
94% 30.16" Hg 1021.1 hPa